Dimock, South Dakota
Current Conditions -  °F | °C
As of 6:53 PM on Saturday 22 Nov 2014 (Local Time) from KMHE Reporting Station
Clear Clear  
Wind Chill: 43°   Ceiling: Unl
Heat Index: 47°   Visibility: 10mi
Dew Point: 35°   Wind: 8mph
Humidity: 63%   Direction: 200°SSW
Pressure: 29.43"   Gusts: NA
Location:  43.47°N, 97.99°W
Report Text: KMHE 230053Z AUTO 20007KT 10SM CLR 08/02 A2943 RMK AO2 SLP974 T00830017 $
Loading
Personal Weather Stations






























Interactive Weather Map New forecast layout! Learn more

10-Day Weather Forecast

Advertisements
Track Severe Weather on mobile